sensor_id;sensor_type;location;lat;lon;timestamp;P1;durP1;ratioP1;P2;durP2;ratioP2
65130;SDS011;51709;54.912;8.316;2023-02-02T00:05:07;30.00;;;5.18;;
65130;SDS011;51709;54.912;8.316;2023-02-02T00:10:29;31.63;;;4.50;;
65130;SDS011;51709;54.912;8.316;2023-02-02T00:15:51;21.48;;;3.70;;
65130;SDS011;51709;54.912;8.316;2023-02-02T00:21:12;21.35;;;4.00;;
65130;SDS011;51709;54.912;8.316;2023-02-02T00:26:33;35.80;;;5.80;;
65130;SDS011;51709;54.912;8.316;2023-02-02T00:31:54;44.88;;;5.97;;
65130;SDS011;51709;54.912;8.316;2023-02-02T00:37:14;23.13;;;4.20;;
65130;SDS011;51709;54.912;8.316;2023-02-02T00:42:35;32.30;;;4.68;;
65130;SDS011;51709;54.912;8.316;2023-02-02T00:47:55;54.33;;;5.50;;
65130;SDS011;51709;54.912;8.316;2023-02-02T00:53:16;22.23;;;3.17;;
65130;SDS011;51709;54.912;8.316;2023-02-02T00:58:39;20.33;;;3.63;;
65130;SDS011;51709;54.912;8.316;2023-02-02T01:04:00;13.50;;;4.05;;
65130;SDS011;51709;54.912;8.316;2023-02-02T01:09:21;25.95;;;4.30;;
65130;SDS011;51709;54.912;8.316;2023-02-02T01:14:42;16.08;;;3.97;;
65130;SDS011;51709;54.912;8.316;2023-02-02T01:20:03;15.73;;;3.53;;
65130;SDS011;51709;54.912;8.316;2023-02-02T01:25:25;23.58;;;3.25;;
65130;SDS011;51709;54.912;8.316;2023-02-02T01:30:47;11.82;;;2.80;;
65130;SDS011;51709;54.912;8.316;2023-02-02T01:36:12;23.40;;;3.05;;
65130;SDS011;51709;54.912;8.316;2023-02-02T01:41:35;15.82;;;3.22;;
65130;SDS011;51709;54.912;8.316;2023-02-02T01:46:55;15.57;;;2.70;;
65130;SDS011;51709;54.912;8.316;2023-02-02T01:52:16;20.45;;;3.85;;
65130;SDS011;51709;54.912;8.316;2023-02-02T02:03:35;29.77;;;4.10;;
65130;SDS011;51709;54.912;8.316;2023-02-02T02:09:01;24.15;;;3.80;;
65130;SDS011;51709;54.912;8.316;2023-02-02T02:14:23;35.00;;;4.53;;
65130;SDS011;51709;54.912;8.316;2023-02-02T02:20:17;30.27;;;4.15;;
65130;SDS011;51709;54.912;8.316;2023-02-02T02:26:24;33.25;;;5.30;;
65130;SDS011;51709;54.912;8.316;2023-02-02T02:43:29;20.55;;;3.05;;
65130;SDS011;51709;54.912;8.316;2023-02-02T02:48:58;35.83;;;5.32;;
65130;SDS011;51709;54.912;8.316;2023-02-02T03:10:52;32.08;;;4.72;;
65130;SDS011;51709;54.912;8.316;2023-02-02T03:16:16;12.88;;;2.60;;
65130;SDS011;51709;54.912;8.316;2023-02-02T03:21:37;20.17;;;3.67;;
65130;SDS011;51709;54.912;8.316;2023-02-02T03:26:57;25.98;;;4.07;;
65130;SDS011;51709;54.912;8.316;2023-02-02T03:32:18;21.02;;;3.38;;
65130;SDS011;51709;54.912;8.316;2023-02-02T03:37:39;25.92;;;3.58;;
65130;SDS011;51709;54.912;8.316;2023-02-02T03:43:00;26.00;;;3.85;;
65130;SDS011;51709;54.912;8.316;2023-02-02T03:48:20;9.02;;;1.60;;
65130;SDS011;51709;54.912;8.316;2023-02-02T03:53:42;9.18;;;2.30;;
65130;SDS011;51709;54.912;8.316;2023-02-02T03:59:09;14.05;;;3.13;;
65130;SDS011;51709;54.912;8.316;2023-02-02T04:04:29;13.93;;;2.47;;
65130;SDS011;51709;54.912;8.316;2023-02-02T04:09:50;11.45;;;2.20;;
65130;SDS011;51709;54.912;8.316;2023-02-02T04:15:11;21.85;;;2.35;;
65130;SDS011;51709;54.912;8.316;2023-02-02T04:20:32;12.05;;;2.47;;
65130;SDS011;51709;54.912;8.316;2023-02-02T04:25:52;19.33;;;2.58;;
65130;SDS011;51709;54.912;8.316;2023-02-02T04:31:13;30.60;;;3.42;;
65130;SDS011;51709;54.912;8.316;2023-02-02T04:36:33;13.30;;;2.67;;
65130;SDS011;51709;54.912;8.316;2023-02-02T04:41:53;15.45;;;2.75;;
65130;SDS011;51709;54.912;8.316;2023-02-02T04:47:14;14.98;;;2.03;;
65130;SDS011;51709;54.912;8.316;2023-02-02T04:52:34;7.47;;;2.28;;
65130;SDS011;51709;54.912;8.316;2023-02-02T04:57:55;15.93;;;2.67;;
65130;SDS011;51709;54.912;8.316;2023-02-02T05:03:15;21.45;;;2.38;;
65130;SDS011;51709;54.912;8.316;2023-02-02T05:08:36;19.80;;;3.53;;
65130;SDS011;51709;54.912;8.316;2023-02-02T05:13:57;20.17;;;3.58;;
65130;SDS011;51709;54.912;8.316;2023-02-02T05:19:18;14.68;;;2.53;;
65130;SDS011;51709;54.912;8.316;2023-02-02T05:24:39;20.67;;;2.55;;
65130;SDS011;51709;54.912;8.316;2023-02-02T05:30:00;23.10;;;3.10;;
65130;SDS011;51709;54.912;8.316;2023-02-02T05:35:21;24.80;;;3.67;;
65130;SDS011;51709;54.912;8.316;2023-02-02T05:40:43;21.33;;;3.63;;
65130;SDS011;51709;54.912;8.316;2023-02-02T05:46:03;18.75;;;3.90;;
65130;SDS011;51709;54.912;8.316;2023-02-02T05:51:27;19.95;;;4.15;;
65130;SDS011;51709;54.912;8.316;2023-02-02T05:56:51;21.85;;;3.08;;
65130;SDS011;51709;54.912;8.316;2023-02-02T06:02:13;19.52;;;2.95;;
65130;SDS011;51709;54.912;8.316;2023-02-02T06:07:34;21.42;;;4.30;;
65130;SDS011;51709;54.912;8.316;2023-02-02T06:12:55;21.45;;;3.42;;
65130;SDS011;51709;54.912;8.316;2023-02-02T06:18:17;25.08;;;4.85;;
65130;SDS011;51709;54.912;8.316;2023-02-02T06:23:38;18.27;;;2.53;;
65130;SDS011;51709;54.912;8.316;2023-02-02T06:29:05;6.72;;;1.67;;
65130;SDS011;51709;54.912;8.316;2023-02-02T06:34:26;20.52;;;3.67;;
65130;SDS011;51709;54.912;8.316;2023-02-02T06:39:46;13.88;;;2.42;;
65130;SDS011;51709;54.912;8.316;2023-02-02T06:45:07;26.85;;;3.35;;
65130;SDS011;51709;54.912;8.316;2023-02-02T06:50:28;22.75;;;3.72;;
65130;SDS011;51709;54.912;8.316;2023-02-02T06:55:56;24.38;;;3.15;;
65130;SDS011;51709;54.912;8.316;2023-02-02T07:01:21;19.67;;;4.00;;
65130;SDS011;51709;54.912;8.316;2023-02-02T07:06:42;32.33;;;2.95;;
65130;SDS011;51709;54.912;8.316;2023-02-02T07:12:02;18.20;;;3.72;;
65130;SDS011;51709;54.912;8.316;2023-02-02T07:17:30;14.10;;;2.50;;
65130;SDS011;51709;54.912;8.316;2023-02-02T07:22:51;23.23;;;3.95;;
65130;SDS011;51709;54.912;8.316;2023-02-02T07:28:12;17.75;;;2.63;;
65130;SDS011;51709;54.912;8.316;2023-02-02T07:33:33;21.13;;;3.78;;
65130;SDS011;51709;54.912;8.316;2023-02-02T07:38:57;27.42;;;3.25;;
65130;SDS011;51709;54.912;8.316;2023-02-02T07:44:19;19.33;;;4.22;;
65130;SDS011;51709;54.912;8.316;2023-02-02T07:49:40;18.30;;;3.28;;
65130;SDS011;51709;54.912;8.316;2023-02-02T07:55:01;14.48;;;2.75;;
65130;SDS011;51709;54.912;8.316;2023-02-02T08:00:34;18.88;;;2.47;;
65130;SDS011;51709;54.912;8.316;2023-02-02T08:05:55;21.70;;;4.15;;
65130;SDS011;51709;54.912;8.316;2023-02-02T08:11:20;21.90;;;2.88;;
65130;SDS011;51709;54.912;8.316;2023-02-02T08:16:42;22.02;;;3.63;;
65130;SDS011;51709;54.912;8.316;2023-02-02T08:22:03;17.23;;;3.17;;
65130;SDS011;51709;54.912;8.316;2023-02-02T08:27:23;20.38;;;3.60;;
65130;SDS011;51709;54.912;8.316;2023-02-02T08:32:44;16.00;;;2.53;;
65130;SDS011;51709;54.912;8.316;2023-02-02T08:38:05;16.25;;;4.47;;
65130;SDS011;51709;54.912;8.316;2023-02-02T08:43:27;30.27;;;4.65;;
65130;SDS011;51709;54.912;8.316;2023-02-02T08:48:48;17.80;;;3.63;;
65130;SDS011;51709;54.912;8.316;2023-02-02T08:54:09;20.38;;;3.88;;
65130;SDS011;51709;54.912;8.316;2023-02-02T08:59:29;28.92;;;3.92;;
65130;SDS011;51709;54.912;8.316;2023-02-02T09:04:50;11.45;;;3.00;;
65130;SDS011;51709;54.912;8.316;2023-02-02T09:10:11;14.18;;;3.50;;
65130;SDS011;51709;54.912;8.316;2023-02-02T09:15:31;12.13;;;2.30;;
65130;SDS011;51709;54.912;8.316;2023-02-02T09:20:57;25.42;;;3.28;;
65130;SDS011;51709;54.912;8.316;2023-02-02T09:31:48;20.60;;;2.58;;
65130;SDS011;51709;54.912;8.316;2023-02-02T09:37:09;16.83;;;2.78;;
65130;SDS011;51709;54.912;8.316;2023-02-02T09:42:33;12.85;;;3.10;;
65130;SDS011;51709;54.912;8.316;2023-02-02T09:48:20;11.02;;;2.53;;
65130;SDS011;51709;54.912;8.316;2023-02-02T09:53:46;22.30;;;2.58;;
65130;SDS011;51709;54.912;8.316;2023-02-02T09:59:22;21.35;;;3.30;;
65130;SDS011;51709;54.912;8.316;2023-02-02T10:04:49;13.00;;;2.13;;
65130;SDS011;51709;54.912;8.316;2023-02-02T10:10:18;11.38;;;1.52;;
65130;SDS011;51709;54.912;8.316;2023-02-02T10:27:14;17.77;;;2.22;;
65130;SDS011;51709;54.912;8.316;2023-02-02T10:33:20;7.35;;;1.90;;
65130;SDS011;51709;54.912;8.316;2023-02-02T10:44:27;18.20;;;2.67;;
65130;SDS011;51709;54.912;8.316;2023-02-02T10:55:37;13.70;;;3.05;;
65130;SDS011;51709;54.912;8.316;2023-02-02T11:01:02;14.05;;;2.40;;
65130;SDS011;51709;54.912;8.316;2023-02-02T11:12:10;22.08;;;2.83;;
65130;SDS011;51709;54.912;8.316;2023-02-02T11:17:39;15.57;;;2.30;;
65130;SDS011;51709;54.912;8.316;2023-02-02T11:23:01;20.73;;;2.28;;
65130;SDS011;51709;54.912;8.316;2023-02-02T11:28:23;21.63;;;3.20;;
65130;SDS011;51709;54.912;8.316;2023-02-02T11:33:49;9.15;;;1.55;;
65130;SDS011;51709;54.912;8.316;2023-02-02T11:39:14;12.63;;;2.50;;
65130;SDS011;51709;54.912;8.316;2023-02-02T11:44:38;8.13;;;2.13;;
65130;SDS011;51709;54.912;8.316;2023-02-02T11:50:00;17.48;;;2.30;;
65130;SDS011;51709;54.912;8.316;2023-02-02T11:55:28;10.52;;;1.83;;
65130;SDS011;51709;54.912;8.316;2023-02-02T12:00:52;4.65;;;1.40;;
65130;SDS011;51709;54.912;8.316;2023-02-02T12:06:22;18.63;;;2.42;;
65130;SDS011;51709;54.912;8.316;2023-02-02T12:11:49;9.70;;;1.33;;
65130;SDS011;51709;54.912;8.316;2023-02-02T12:17:36;20.58;;;2.75;;
65130;SDS011;51709;54.912;8.316;2023-02-02T12:29:05;11.75;;;1.38;;
65130;SDS011;51709;54.912;8.316;2023-02-02T12:52:17;12.50;;;1.35;;
65130;SDS011;51709;54.912;8.316;2023-02-02T12:57:45;4.18;;;1.20;;
65130;SDS011;51709;54.912;8.316;2023-02-02T13:14:24;9.88;;;1.10;;
65130;SDS011;51709;54.912;8.316;2023-02-02T13:19:50;17.48;;;2.00;;
65130;SDS011;51709;54.912;8.316;2023-02-02T13:25:23;16.92;;;2.47;;
65130;SDS011;51709;54.912;8.316;2023-02-02T13:30:48;14.77;;;2.15;;
65130;SDS011;51709;54.912;8.316;2023-02-02T13:36:21;12.20;;;1.70;;
65130;SDS011;51709;54.912;8.316;2023-02-02T13:41:48;13.50;;;2.30;;
65130;SDS011;51709;54.912;8.316;2023-02-02T13:47:14;4.60;;;1.55;;
65130;SDS011;51709;54.912;8.316;2023-02-02T13:52:43;10.52;;;1.33;;
65130;SDS011;51709;54.912;8.316;2023-02-02T14:04:18;10.82;;;1.83;;
65130;SDS011;51709;54.912;8.316;2023-02-02T14:09:41;7.78;;;1.50;;
65130;SDS011;51709;54.912;8.316;2023-02-02T14:15:02;10.13;;;2.17;;
65130;SDS011;51709;54.912;8.316;2023-02-02T14:26:03;10.68;;;1.67;;
65130;SDS011;51709;54.912;8.316;2023-02-02T14:31:39;19.42;;;1.77;;
65130;SDS011;51709;54.912;8.316;2023-02-02T14:43:04;11.85;;;2.72;;
65130;SDS011;51709;54.912;8.316;2023-02-02T14:48:45;11.77;;;2.47;;
65130;SDS011;51709;54.912;8.316;2023-02-02T14:54:14;10.88;;;1.70;;
65130;SDS011;51709;54.912;8.316;2023-02-02T14:59:42;13.93;;;2.13;;
65130;SDS011;51709;54.912;8.316;2023-02-02T15:10:58;13.65;;;2.15;;
65130;SDS011;51709;54.912;8.316;2023-02-02T15:16:41;17.55;;;3.03;;
65130;SDS011;51709;54.912;8.316;2023-02-02T15:33:46;6.78;;;1.75;;
65130;SDS011;51709;54.912;8.316;2023-02-02T15:39:30;15.25;;;2.17;;
65130;SDS011;51709;54.912;8.316;2023-02-02T15:44:58;11.13;;;2.00;;
65130;SDS011;51709;54.912;8.316;2023-02-02T15:50:19;12.15;;;1.70;;
65130;SDS011;51709;54.912;8.316;2023-02-02T15:55:40;26.40;;;3.28;;
65130;SDS011;51709;54.912;8.316;2023-02-02T16:01:03;6.85;;;1.40;;
65130;SDS011;51709;54.912;8.316;2023-02-02T16:06:28;10.38;;;1.90;;
65130;SDS011;51709;54.912;8.316;2023-02-02T16:11:49;7.25;;;2.03;;
65130;SDS011;51709;54.912;8.316;2023-02-02T16:17:12;18.33;;;2.60;;
65130;SDS011;51709;54.912;8.316;2023-02-02T16:22:40;8.98;;;2.15;;
65130;SDS011;51709;54.912;8.316;2023-02-02T16:28:09;10.60;;;1.77;;
65130;SDS011;51709;54.912;8.316;2023-02-02T16:33:34;17.58;;;2.53;;
65130;SDS011;51709;54.912;8.316;2023-02-02T16:38:56;9.85;;;1.40;;
65130;SDS011;51709;54.912;8.316;2023-02-02T16:44:41;18.42;;;3.60;;
65130;SDS011;51709;54.912;8.316;2023-02-02T16:55:27;9.60;;;2.55;;
65130;SDS011;51709;54.912;8.316;2023-02-02T17:01:12;21.10;;;3.10;;
65130;SDS011;51709;54.912;8.316;2023-02-02T17:06:36;16.50;;;3.15;;
65130;SDS011;51709;54.912;8.316;2023-02-02T17:17:55;9.15;;;1.45;;
65130;SDS011;51709;54.912;8.316;2023-02-02T17:23:16;25.23;;;2.80;;
65130;SDS011;51709;54.912;8.316;2023-02-02T17:28:38;18.55;;;2.25;;
65130;SDS011;51709;54.912;8.316;2023-02-02T17:34:00;17.00;;;2.70;;
65130;SDS011;51709;54.912;8.316;2023-02-02T17:39:22;16.20;;;2.28;;
65130;SDS011;51709;54.912;8.316;2023-02-02T17:44:45;15.15;;;3.05;;
65130;SDS011;51709;54.912;8.316;2023-02-02T17:50:06;20.83;;;3.05;;
65130;SDS011;51709;54.912;8.316;2023-02-02T17:55:29;14.15;;;2.70;;
65130;SDS011;51709;54.912;8.316;2023-02-02T18:00:54;15.93;;;2.53;;
65130;SDS011;51709;54.912;8.316;2023-02-02T18:06:18;14.60;;;2.70;;
65130;SDS011;51709;54.912;8.316;2023-02-02T18:11:38;12.45;;;2.50;;
65130;SDS011;51709;54.912;8.316;2023-02-02T18:17:01;23.92;;;2.70;;
65130;SDS011;51709;54.912;8.316;2023-02-02T18:22:22;23.70;;;2.65;;
65130;SDS011;51709;54.912;8.316;2023-02-02T18:27:43;12.82;;;2.20;;
65130;SDS011;51709;54.912;8.316;2023-02-02T18:33:07;8.93;;;2.17;;
65130;SDS011;51709;54.912;8.316;2023-02-02T18:38:28;32.92;;;4.20;;
65130;SDS011;51709;54.912;8.316;2023-02-02T18:43:52;16.50;;;2.70;;
65130;SDS011;51709;54.912;8.316;2023-02-02T18:49:16;10.63;;;2.50;;
65130;SDS011;51709;54.912;8.316;2023-02-02T18:54:37;10.57;;;3.03;;
65130;SDS011;51709;54.912;8.316;2023-02-02T18:59:58;15.68;;;1.83;;
65130;SDS011;51709;54.912;8.316;2023-02-02T19:05:21;12.48;;;2.70;;
65130;SDS011;51709;54.912;8.316;2023-02-02T19:11:01;16.58;;;2.88;;
65130;SDS011;51709;54.912;8.316;2023-02-02T19:16:36;17.95;;;3.03;;
65130;SDS011;51709;54.912;8.316;2023-02-02T19:22:02;6.15;;;2.15;;
65130;SDS011;51709;54.912;8.316;2023-02-02T19:27:28;8.38;;;1.95;;
65130;SDS011;51709;54.912;8.316;2023-02-02T19:32:49;7.65;;;1.85;;
65130;SDS011;51709;54.912;8.316;2023-02-02T19:43:36;13.82;;;2.70;;
65130;SDS011;51709;54.912;8.316;2023-02-02T19:49:00;6.95;;;0.85;;
65130;SDS011;51709;54.912;8.316;2023-02-02T19:54:48;8.85;;;2.08;;
65130;SDS011;51709;54.912;8.316;2023-02-02T20:00:10;5.47;;;1.25;;
65130;SDS011;51709;54.912;8.316;2023-02-02T20:05:40;9.55;;;1.42;;
65130;SDS011;51709;54.912;8.316;2023-02-02T20:11:07;10.57;;;1.80;;
65130;SDS011;51709;54.912;8.316;2023-02-02T20:16:50;13.43;;;1.85;;
65130;SDS011;51709;54.912;8.316;2023-02-02T20:22:26;16.02;;;2.25;;
65130;SDS011;51709;54.912;8.316;2023-02-02T20:27:47;9.93;;;2.20;;
65130;SDS011;51709;54.912;8.316;2023-02-02T20:33:16;4.30;;;1.73;;
65130;SDS011;51709;54.912;8.316;2023-02-02T20:38:43;5.65;;;1.98;;
65130;SDS011;51709;54.912;8.316;2023-02-02T20:44:04;9.90;;;1.55;;
65130;SDS011;51709;54.912;8.316;2023-02-02T20:49:25;12.45;;;1.92;;
65130;SDS011;51709;54.912;8.316;2023-02-02T20:54:47;8.77;;;2.03;;
65130;SDS011;51709;54.912;8.316;2023-02-02T21:00:09;11.43;;;2.42;;
65130;SDS011;51709;54.912;8.316;2023-02-02T21:05:32;10.98;;;2.40;;
65130;SDS011;51709;54.912;8.316;2023-02-02T21:10:53;7.32;;;2.55;;
65130;SDS011;51709;54.912;8.316;2023-02-02T21:16:14;9.93;;;3.13;;
65130;SDS011;51709;54.912;8.316;2023-02-02T21:21:35;6.85;;;2.92;;
65130;SDS011;51709;54.912;8.316;2023-02-02T21:26:56;22.55;;;3.88;;
65130;SDS011;51709;54.912;8.316;2023-02-02T21:32:18;20.63;;;3.05;;
65130;SDS011;51709;54.912;8.316;2023-02-02T21:37:39;8.88;;;3.63;;
65130;SDS011;51709;54.912;8.316;2023-02-02T21:43:00;12.82;;;3.10;;
65130;SDS011;51709;54.912;8.316;2023-02-02T21:48:32;9.15;;;2.75;;
65130;SDS011;51709;54.912;8.316;2023-02-02T21:53:54;10.27;;;2.42;;
65130;SDS011;51709;54.912;8.316;2023-02-02T21:59:18;16.25;;;3.10;;
65130;SDS011;51709;54.912;8.316;2023-02-02T22:04:42;23.42;;;4.50;;
65130;SDS011;51709;54.912;8.316;2023-02-02T22:10:08;26.52;;;3.78;;
65130;SDS011;51709;54.912;8.316;2023-02-02T22:16:01;28.35;;;4.93;;
65130;SDS011;51709;54.912;8.316;2023-02-02T22:21:22;30.42;;;4.72;;
65130;SDS011;51709;54.912;8.316;2023-02-02T22:26:43;17.95;;;3.97;;
65130;SDS011;51709;54.912;8.316;2023-02-02T22:32:03;48.00;;;6.28;;
65130;SDS011;51709;54.912;8.316;2023-02-02T22:37:24;21.90;;;4.40;;
65130;SDS011;51709;54.912;8.316;2023-02-02T22:42:45;33.20;;;4.75;;
65130;SDS011;51709;54.912;8.316;2023-02-02T22:48:05;23.17;;;3.50;;
65130;SDS011;51709;54.912;8.316;2023-02-02T22:53:26;35.28;;;5.22;;
65130;SDS011;51709;54.912;8.316;2023-02-02T22:58:47;11.60;;;5.05;;
65130;SDS011;51709;54.912;8.316;2023-02-02T23:04:08;24.98;;;4.80;;
65130;SDS011;51709;54.912;8.316;2023-02-02T23:09:28;21.52;;;3.17;;
65130;SDS011;51709;54.912;8.316;2023-02-02T23:14:49;27.40;;;4.80;;
65130;SDS011;51709;54.912;8.316;2023-02-02T23:20:10;20.65;;;2.83;;
65130;SDS011;51709;54.912;8.316;2023-02-02T23:25:33;22.75;;;3.53;;
65130;SDS011;51709;54.912;8.316;2023-02-02T23:30:54;27.05;;;4.43;;
65130;SDS011;51709;54.912;8.316;2023-02-02T23:36:18;34.97;;;4.25;;
65130;SDS011;51709;54.912;8.316;2023-02-02T23:41:39;27.73;;;5.57;;
65130;SDS011;51709;54.912;8.316;2023-02-02T23:47:00;29.92;;;4.97;;
65130;SDS011;51709;54.912;8.316;2023-02-02T23:52:21;17.75;;;3.40;;
65130;SDS011;51709;54.912;8.316;2023-02-02T23:57:42;42.90;;;5.65;;
